createdAt,value
2016-10-22T00:00:35.901Z,0
2016-10-22T00:01:35.852Z,0
2016-10-22T00:02:35.845Z,0
2016-10-22T00:03:36.144Z,0
2016-10-22T00:04:36.111Z,0
2016-10-22T00:05:36.090Z,0
2016-10-22T00:06:35.763Z,0
2016-10-22T00:07:35.779Z,0
2016-10-22T00:08:36.048Z,0
2016-10-22T00:09:36.353Z,0
2016-10-22T00:10:35.710Z,0
2016-10-22T00:11:35.789Z,0
2016-10-22T00:12:36.609Z,0
2016-10-22T00:13:35.990Z,0
2016-10-22T00:14:35.955Z,0
2016-10-22T00:15:35.946Z,0
2016-10-22T00:16:35.954Z,0
2016-10-22T00:17:35.621Z,0
2016-10-22T00:18:35.582Z,0
2016-10-22T00:19:35.877Z,0
2016-10-22T00:20:35.549Z,0
2016-10-22T00:21:35.584Z,0
2016-10-22T00:22:35.828Z,0
2016-10-22T00:23:35.586Z,0
2016-10-22T00:24:36.463Z,0
2016-10-22T00:25:35.808Z,0
2016-10-22T00:26:35.458Z,0
2016-10-22T00:27:35.441Z,0
2016-10-22T00:28:35.429Z,0
2016-10-22T00:29:35.423Z,0
2016-10-22T00:30:35.711Z,0
2016-10-22T00:31:35.693Z,0
2016-10-22T00:32:35.367Z,0
2016-10-22T00:33:35.349Z,0
2016-10-22T00:34:35.661Z,0
2016-10-22T00:35:35.327Z,0
2016-10-22T00:36:35.626Z,0
2016-10-22T00:37:35.342Z,0
2016-10-22T00:38:35.288Z,0
2016-10-22T00:39:35.584Z,0
2016-10-22T00:40:35.248Z,0
2016-10-22T00:41:35.255Z,0
2016-10-22T00:42:35.529Z,0
2016-10-22T00:43:35.222Z,0
2016-10-22T00:44:35.222Z,0
2016-10-22T00:45:35.199Z,0
2016-10-22T00:46:35.160Z,0
2016-10-22T00:47:35.152Z,0
2016-10-22T00:48:35.144Z,0
2016-10-22T00:49:35.119Z,0
2016-10-22T00:50:35.104Z,0
2016-10-22T00:51:35.393Z,0
2016-10-22T00:52:35.069Z,0
2016-10-22T00:53:35.415Z,0
2016-10-22T00:54:35.035Z,0
2016-10-22T00:55:35.327Z,0
2016-10-22T00:56:35.056Z,0
2016-10-22T00:57:35.305Z,0
2016-10-22T00:58:35.297Z,0
2016-10-22T00:59:34.965Z,0
2016-10-22T01:00:35.267Z,0
2016-10-22T01:01:34.977Z,0
2016-10-22T01:02:34.919Z,0
2016-10-22T01:03:35.068Z,0
2016-10-22T01:04:35.525Z,0
2016-10-22T01:05:34.930Z,0
2016-10-22T01:06:35.168Z,0
2016-10-22T01:07:34.831Z,0
2016-10-22T01:08:35.142Z,0
2016-10-22T01:09:35.128Z,0
2016-10-22T01:10:34.799Z,0
2016-10-22T01:11:34.827Z,0
2016-10-22T01:12:34.773Z,0
2016-10-22T01:13:35.114Z,0
2016-10-22T01:14:35.072Z,0
2016-10-22T01:15:35.043Z,0
2016-10-22T01:16:35.334Z,0
2016-10-22T01:17:34.780Z,0
2016-10-22T01:18:34.674Z,0
2016-10-22T01:19:34.969Z,0
2016-10-22T01:20:34.690Z,0
2016-10-22T01:21:34.973Z,0
2016-10-22T01:22:34.624Z,0
2016-10-22T01:23:34.610Z,0
2016-10-22T01:24:35.249Z,0
2016-10-22T01:25:34.577Z,0
2016-10-22T01:26:34.566Z,0
2016-10-22T01:27:34.541Z,0
2016-10-22T01:28:34.826Z,0
2016-10-22T01:29:34.821Z,0
2016-10-22T01:30:34.865Z,0
2016-10-22T01:31:34.485Z,0
2016-10-22T01:32:34.508Z,0
2016-10-22T01:33:34.771Z,0
2016-10-22T01:34:34.442Z,0
2016-10-22T01:35:34.739Z,0
2016-10-22T01:36:34.722Z,0
2016-10-22T01:37:34.438Z,0
2016-10-22T01:38:34.395Z,0
2016-10-22T01:39:34.365Z,0
2016-10-22T01:40:34.374Z,0
2016-10-22T01:41:34.325Z,0
2016-10-22T01:42:34.318Z,0
2016-10-22T01:43:34.620Z,0
2016-10-22T01:44:34.638Z,0
2016-10-22T01:45:34.799Z,0
2016-10-22T01:46:34.253Z,0
2016-10-22T01:47:34.599Z,0
2016-10-22T01:48:34.556Z,0
2016-10-22T01:49:34.560Z,0
2016-10-22T01:50:34.210Z,0
2016-10-22T01:51:34.182Z,0
2016-10-22T01:52:34.170Z,0
2016-10-22T01:53:34.181Z,0
2016-10-22T01:54:34.446Z,0
2016-10-22T01:55:34.165Z,0
2016-10-22T01:56:34.130Z,0
2016-10-22T01:57:34.082Z,0
2016-10-22T01:58:34.065Z,0
2016-10-22T01:59:34.052Z,0
2016-10-22T02:00:34.400Z,0
2016-10-22T02:01:34.026Z,0
2016-10-22T02:02:34.012Z,0
2016-10-22T02:03:33.998Z,0
2016-10-22T02:04:34.333Z,0
2016-10-22T02:05:33.972Z,0
2016-10-22T02:06:33.950Z,0
2016-10-22T02:07:33.942Z,0
2016-10-22T02:08:33.958Z,0
2016-10-22T02:09:33.903Z,0
2016-10-22T02:10:33.899Z,0
2016-10-22T02:11:34.224Z,0
2016-10-22T02:12:33.872Z,0
2016-10-22T02:13:33.852Z,0
2016-10-22T02:14:33.831Z,0
2016-10-22T02:15:33.849Z,0
2016-10-22T02:16:34.151Z,0
2016-10-22T02:17:33.788Z,0
2016-10-22T02:18:33.819Z,0
2016-10-22T02:19:34.108Z,0
2016-10-22T02:20:33.740Z,0
2016-10-22T02:21:34.409Z,0
2016-10-22T02:22:34.070Z,0
2016-10-22T02:23:33.697Z,0
2016-10-22T02:24:33.685Z,0
2016-10-22T02:25:34.305Z,0
2016-10-22T02:26:33.994Z,0
2016-10-22T02:27:33.639Z,0
2016-10-22T02:28:33.629Z,0
2016-10-22T02:29:33.648Z,0
2016-10-22T02:30:34.562Z,0
2016-10-22T02:31:33.569Z,0
2016-10-22T02:32:33.564Z,0
2016-10-22T02:33:33.565Z,0
2016-10-22T02:34:33.532Z,0
2016-10-22T02:35:34.140Z,0
2016-10-22T02:36:33.843Z,0
2016-10-22T02:37:33.484Z,0
2016-10-22T02:38:33.547Z,0
2016-10-22T02:39:33.455Z,0
2016-10-22T02:40:33.491Z,0
2016-10-22T02:41:33.472Z,0
2016-10-22T02:42:33.438Z,0
2016-10-22T02:43:34.018Z,0
2016-10-22T02:44:33.373Z,0
2016-10-22T02:45:33.664Z,0
2016-10-22T02:46:33.387Z,0
2016-10-22T02:47:33.644Z,0
2016-10-22T02:48:33.321Z,0
2016-10-22T02:49:33.971Z,0
2016-10-22T02:50:33.588Z,0
2016-10-22T02:51:33.575Z,0
2016-10-22T02:52:33.262Z,0
2016-10-22T02:53:33.240Z,0
2016-10-22T02:54:33.231Z,0
2016-10-22T02:55:33.205Z,0
2016-10-22T02:56:33.510Z,0
2016-10-22T02:57:33.553Z,0
2016-10-22T02:58:33.475Z,0
2016-10-22T02:59:33.146Z,0
2016-10-22T03:00:33.185Z,0
2016-10-22T03:01:33.444Z,0
2016-10-22T03:02:33.145Z,0
2016-10-22T03:03:33.412Z,0
2016-10-22T03:04:33.069Z,0
2016-10-22T03:05:33.150Z,0
2016-10-22T03:06:33.343Z,0
2016-10-22T03:07:33.022Z,0
2016-10-22T03:08:33.019Z,0
2016-10-22T03:09:33.355Z,0
2016-10-22T03:10:33.027Z,0
2016-10-22T03:11:33.270Z,0
2016-10-22T03:12:33.001Z,0
2016-10-22T03:13:32.970Z,0
2016-10-22T03:14:33.604Z,0
2016-10-22T03:15:33.259Z,0
2016-10-22T03:16:33.209Z,0
2016-10-22T03:17:32.872Z,0
2016-10-22T03:18:32.914Z,0
2016-10-22T03:19:32.901Z,0
2016-10-22T03:20:32.856Z,0
2016-10-22T03:21:32.809Z,0
2016-10-22T03:22:32.794Z,0
2016-10-22T03:23:32.792Z,0
2016-10-22T03:24:33.099Z,0
2016-10-22T03:25:33.113Z,0
2016-10-22T03:26:32.749Z,0
2016-10-22T03:27:33.079Z,0
2016-10-22T03:28:33.339Z,0
2016-10-22T03:29:32.687Z,0
2016-10-22T03:30:32.981Z,0
2016-10-22T03:31:32.645Z,0
2016-10-22T03:32:32.967Z,0
2016-10-22T03:33:32.954Z,0
2016-10-22T03:34:32.613Z,0
2016-10-22T03:35:32.931Z,0
2016-10-22T03:36:32.897Z,0
2016-10-22T03:37:33.588Z,0
2016-10-22T03:38:32.553Z,0
2016-10-22T03:39:33.163Z,0
2016-10-22T03:40:32.523Z,0
2016-10-22T03:41:32.514Z,0
2016-10-22T03:42:32.506Z,0
2016-10-22T03:43:32.481Z,0
2016-10-22T03:44:32.772Z,0
2016-10-22T03:45:32.681Z,0
2016-10-22T03:46:32.426Z,0
2016-10-22T03:47:32.819Z,0
2016-10-22T03:48:32.451Z,0
2016-10-22T03:49:32.707Z,0
2016-10-22T03:50:32.675Z,0
2016-10-22T03:51:32.369Z,0
2016-10-22T03:52:32.712Z,0
2016-10-22T03:53:32.655Z,0
2016-10-22T03:54:32.316Z,0
2016-10-22T03:55:32.294Z,0
2016-10-22T03:56:32.587Z,0
2016-10-22T03:57:32.580Z,0
2016-10-22T03:58:32.647Z,0
2016-10-22T03:59:32.233Z,0
2016-10-22T04:00:32.844Z,0
2016-10-22T04:01:32.513Z,0
2016-10-22T04:02:32.182Z,0
2016-10-22T04:03:32.488Z,0
2016-10-22T04:04:32.150Z,0
2016-10-22T04:05:32.450Z,0
2016-10-22T04:06:32.116Z,0
2016-10-22T04:07:32.107Z,0
2016-10-22T04:08:32.092Z,0
2016-10-22T04:09:32.390Z,0
2016-10-22T04:10:32.428Z,0
2016-10-22T04:11:32.054Z,0
2016-10-22T04:12:32.030Z,0
2016-10-22T04:13:32.376Z,0
2016-10-22T04:14:32.003Z,0
2016-10-22T04:15:32.298Z,0
2016-10-22T04:16:31.977Z,0
2016-10-22T04:17:32.018Z,0
2016-10-22T04:18:31.933Z,0
2016-10-22T04:19:32.869Z,0
2016-10-22T04:20:32.220Z,0
2016-10-22T04:21:32.204Z,0
2016-10-22T04:22:31.881Z,0
2016-10-22T04:23:32.240Z,0
2016-10-22T04:24:32.065Z,0
2016-10-22T04:25:32.192Z,0
2016-10-22T04:26:31.813Z,0
2016-10-22T04:27:32.423Z,0
2016-10-22T04:28:31.788Z,0
2016-10-22T04:29:32.079Z,0
2016-10-22T04:30:31.753Z,0
2016-10-22T04:31:31.744Z,0
2016-10-22T04:32:32.059Z,0
2016-10-22T04:33:31.703Z,0
2016-10-22T04:34:31.703Z,0
2016-10-22T04:35:31.675Z,0
2016-10-22T04:36:32.073Z,0
2016-10-22T04:37:31.961Z,0
2016-10-22T04:38:32.592Z,0
2016-10-22T04:39:31.626Z,0
2016-10-22T04:40:31.919Z,0
2016-10-22T04:41:31.627Z,0
2016-10-22T04:42:31.930Z,0
2016-10-22T04:43:31.559Z,0
2016-10-22T04:44:31.851Z,0
2016-10-22T04:45:31.529Z,0
2016-10-22T04:46:31.542Z,0
2016-10-22T04:47:32.196Z,0
2016-10-22T04:48:31.854Z,0
2016-10-22T04:49:31.770Z,0
2016-10-22T04:50:31.758Z,0
2016-10-22T04:51:31.435Z,0
2016-10-22T04:52:31.468Z,0
2016-10-22T04:53:31.408Z,0
2016-10-22T04:54:31.695Z,0
2016-10-22T04:55:31.688Z,0
2016-10-22T04:56:31.679Z,0
2016-10-22T04:57:31.342Z,0
2016-10-22T04:58:31.324Z,0
2016-10-22T04:59:31.930Z,0
2016-10-22T05:00:31.603Z,0
2016-10-22T05:01:31.951Z,0
2016-10-22T05:02:31.271Z,0
2016-10-22T05:03:31.250Z,0
2016-10-22T05:04:32.182Z,0
2016-10-22T05:05:31.525Z,0
2016-10-22T05:06:31.510Z,0
2016-10-22T05:07:31.186Z,0
2016-10-22T05:08:31.484Z,0
2016-10-22T05:09:31.169Z,0
2016-10-22T05:10:31.822Z,0
2016-10-22T05:11:31.126Z,0
2016-10-22T05:12:31.423Z,0
2016-10-22T05:13:31.439Z,0
2016-10-22T05:14:31.388Z,0
2016-10-22T05:15:31.059Z,0
2016-10-22T05:16:31.045Z,0
2016-10-22T05:17:31.232Z,0
2016-10-22T05:18:31.007Z,0
2016-10-22T05:19:31.337Z,0
2016-10-22T05:20:30.984Z,0
2016-10-22T05:21:30.982Z,0
2016-10-22T05:22:30.995Z,0
2016-10-22T05:23:31.254Z,0
2016-10-22T05:24:30.917Z,0
2016-10-22T05:25:30.901Z,0
2016-10-22T05:26:30.894Z,0
2016-10-22T05:27:30.870Z,0
2016-10-22T05:28:30.851Z,0
2016-10-22T05:29:31.170Z,0
2016-10-22T05:30:30.828Z,0
2016-10-22T05:31:31.181Z,0
2016-10-22T05:32:30.792Z,0
2016-10-22T05:33:31.095Z,0
2016-10-22T05:34:31.113Z,0
2016-10-22T05:35:31.077Z,0
2016-10-22T05:36:30.736Z,0
2016-10-22T05:37:30.716Z,0
2016-10-22T05:38:30.698Z,0
2016-10-22T05:39:31.314Z,0
2016-10-22T05:40:30.671Z,0
2016-10-22T05:41:30.656Z,0
2016-10-22T05:42:30.638Z,0
2016-10-22T05:43:30.636Z,0
2016-10-22T05:44:30.609Z,0
2016-10-22T05:45:31.121Z,0
2016-10-22T05:46:30.581Z,0
2016-10-22T05:47:30.874Z,0
2016-10-22T05:48:30.870Z,0
2016-10-22T05:49:30.855Z,0
2016-10-22T05:50:30.519Z,0
2016-10-22T05:51:30.495Z,0
2016-10-22T05:52:30.805Z,0
2016-10-22T05:53:30.782Z,0
2016-10-22T05:54:30.768Z,0
2016-10-22T05:55:30.439Z,0
2016-10-22T05:56:30.736Z,0
2016-10-22T05:57:30.765Z,0
2016-10-22T05:58:30.398Z,0
2016-10-22T05:59:30.371Z,0
2016-10-22T06:00:30.361Z,0
2016-10-22T06:01:30.344Z,0
2016-10-22T06:02:30.967Z,0
2016-10-22T06:03:30.307Z,0
2016-10-22T06:04:30.715Z,0
2016-10-22T06:05:30.611Z,0
2016-10-22T06:06:30.285Z,0
2016-10-22T06:07:30.255Z,0
2016-10-22T06:08:30.233Z,0
2016-10-22T06:09:30.272Z,0
2016-10-22T06:10:30.215Z,0
2016-10-22T06:11:30.510Z,0
2016-10-22T06:12:30.177Z,0
2016-10-22T06:13:30.163Z,0
2016-10-22T06:14:30.137Z,0
2016-10-22T06:15:30.128Z,0
2016-10-22T06:16:30.116Z,0
2016-10-22T06:17:30.095Z,0
2016-10-22T06:18:30.079Z,0
2016-10-22T06:19:30.153Z,0
2016-10-22T06:20:30.045Z,0
2016-10-22T06:21:30.032Z,0
2016-10-22T06:22:30.068Z,0
2016-10-22T06:23:30.045Z,0
2016-10-22T06:24:29.980Z,0
2016-10-22T06:25:30.012Z,0
2016-10-22T06:26:30.008Z,5
2016-10-22T06:27:29.964Z,5
2016-10-22T06:28:30.242Z,5
2016-10-22T06:29:30.536Z,5
2016-10-22T06:30:29.888Z,5
2016-10-22T06:31:29.873Z,5
2016-10-22T06:32:29.855Z,5
2016-10-22T06:33:29.843Z,5
2016-10-22T06:34:30.140Z,5
2016-10-22T06:35:30.441Z,5
2016-10-22T06:36:29.800Z,5
2016-10-22T06:37:29.781Z,5
2016-10-22T06:38:29.809Z,5
2016-10-22T06:39:30.063Z,5
2016-10-22T06:40:30.056Z,5
2016-10-22T06:41:29.726Z,5
2016-10-22T06:42:29.700Z,5
2016-10-22T06:43:29.701Z,5
2016-10-22T06:44:29.669Z,5
2016-10-22T06:45:30.010Z,5
2016-10-22T06:46:29.655Z,5
2016-10-22T06:47:29.627Z,5
2016-10-22T06:48:29.621Z,5
2016-10-22T06:49:29.592Z,5
2016-10-22T06:50:29.590Z,5
2016-10-22T06:51:29.592Z,5
2016-10-22T06:52:29.542Z,5
2016-10-22T06:53:29.536Z,5
2016-10-22T06:54:29.513Z,5
2016-10-22T06:55:29.579Z,5
2016-10-22T06:56:29.789Z,5
2016-10-22T06:57:29.807Z,5
2016-10-22T06:58:29.486Z,10
2016-10-22T06:59:30.209Z,10
2016-10-22T07:00:29.765Z,5
2016-10-22T07:01:29.422Z,5
2016-10-22T07:02:30.057Z,5
2016-10-22T07:03:29.371Z,10
2016-10-22T07:04:29.377Z,10
2016-10-22T07:05:29.679Z,10
2016-10-22T07:06:29.346Z,10
2016-10-22T07:07:29.311Z,10
2016-10-22T07:08:29.288Z,10
2016-10-22T07:09:29.279Z,15
2016-10-22T07:10:29.606Z,15
2016-10-22T07:11:29.244Z,15
2016-10-22T07:12:29.230Z,15
2016-10-22T07:13:29.211Z,15
2016-10-22T07:14:29.517Z,20
2016-10-22T07:15:29.496Z,20
2016-10-22T07:16:29.167Z,20
2016-10-22T07:17:29.152Z,20
2016-10-22T07:18:29.468Z,20
2016-10-22T07:19:29.749Z,20
2016-10-22T07:20:29.098Z,20
2016-10-22T07:21:29.559Z,20
2016-10-22T07:22:29.393Z,20
2016-10-22T07:23:29.387Z,25
2016-10-22T07:24:29.670Z,25
2016-10-22T07:25:29.404Z,25
2016-10-22T07:26:29.975Z,25
2016-10-22T07:27:29.004Z,25
2016-10-22T07:28:29.617Z,30
2016-10-22T07:29:29.276Z,30
2016-10-22T07:30:29.271Z,30
2016-10-22T07:31:29.262Z,30
2016-10-22T07:32:28.931Z,30
2016-10-22T07:33:29.527Z,35
2016-10-22T07:34:28.888Z,35
2016-10-22T07:35:28.877Z,35
2016-10-22T07:36:29.177Z,40
2016-10-22T07:37:28.849Z,40
2016-10-22T07:38:28.824Z,40
2016-10-22T07:39:28.809Z,45
2016-10-22T07:40:28.805Z,45
2016-10-22T07:41:28.777Z,45
2016-10-22T07:42:28.759Z,50
2016-10-22T07:43:28.745Z,50
2016-10-22T07:44:28.739Z,50
2016-10-22T07:45:28.725Z,50
2016-10-22T07:46:28.902Z,50
2016-10-22T07:47:28.685Z,50
2016-10-22T07:48:28.673Z,50
2016-10-22T07:49:28.961Z,50
2016-10-22T07:50:28.637Z,50
2016-10-22T07:51:28.933Z,50
2016-10-22T07:52:28.921Z,50
2016-10-22T07:53:28.593Z,50
2016-10-22T07:54:28.579Z,50
2016-10-22T07:55:29.187Z,50
2016-10-22T07:56:28.862Z,50
2016-10-22T07:57:28.529Z,50
2016-10-22T07:58:28.824Z,55
2016-10-22T07:59:28.808Z,50
2016-10-22T08:00:28.496Z,50
2016-10-22T08:01:28.469Z,50
2016-10-22T08:02:29.091Z,55
2016-10-22T08:03:28.769Z,55
2016-10-22T08:04:28.425Z,50
2016-10-22T08:05:28.416Z,50
2016-10-22T08:06:28.706Z,50
2016-10-22T08:07:29.072Z,50
2016-10-22T08:08:28.366Z,50
2016-10-22T08:09:28.362Z,45
2016-10-22T08:10:28.545Z,45
2016-10-22T08:11:28.679Z,45
2016-10-22T08:12:28.621Z,50
2016-10-22T08:13:28.618Z,55
2016-10-22T08:14:28.311Z,50
2016-10-22T08:15:28.703Z,55
2016-10-22T08:16:29.269Z,45
2016-10-22T08:17:28.585Z,50
2016-10-22T08:18:28.773Z,50
2016-10-22T08:19:28.221Z,60
2016-10-22T08:20:28.531Z,60
2016-10-22T08:21:28.187Z,75
2016-10-22T08:22:28.164Z,80
2016-10-22T08:23:28.527Z,85
2016-10-22T08:24:29.170Z,85
2016-10-22T08:25:28.426Z,80
2016-10-22T08:26:28.140Z,75
2016-10-22T08:27:28.080Z,75
2016-10-22T08:28:28.436Z,70
2016-10-22T08:29:28.068Z,75
2016-10-22T08:30:28.713Z,70
2016-10-22T08:31:28.034Z,60
2016-10-22T08:32:28.326Z,45
2016-10-22T08:33:28.049Z,45
2016-10-22T08:34:28.623Z,45
2016-10-22T08:35:27.954Z,35
2016-10-22T08:36:28.270Z,30
2016-10-22T08:37:27.927Z,25
2016-10-22T08:38:28.233Z,30
2016-10-22T08:39:27.908Z,40
2016-10-22T08:40:27.932Z,50
2016-10-22T08:41:28.228Z,60
2016-10-22T08:42:27.864Z,65
2016-10-22T08:43:28.156Z,70
2016-10-22T08:44:28.178Z,65
2016-10-22T08:45:28.010Z,60
2016-10-22T08:46:28.111Z,50
2016-10-22T08:47:28.447Z,60
2016-10-22T08:48:28.728Z,80
2016-10-22T08:49:27.778Z,75
2016-10-22T08:50:28.381Z,55
2016-10-22T08:51:28.060Z,55
2016-10-22T08:52:28.448Z,90
2016-10-22T08:53:28.691Z,95
2016-10-22T08:54:27.692Z,95
2016-10-22T08:55:28.012Z,100
2016-10-22T08:56:28.286Z,120
2016-10-22T08:57:27.975Z,135
2016-10-22T08:58:27.950Z,140
2016-10-22T08:59:27.921Z,130
2016-10-22T09:00:27.620Z,130
2016-10-22T09:01:27.927Z,140
2016-10-22T09:02:27.568Z,135
2016-10-22T09:03:27.574Z,140
2016-10-22T09:04:28.170Z,125
2016-10-22T09:05:27.525Z,120
2016-10-22T09:06:27.950Z,130
2016-10-22T09:07:27.817Z,140
2016-10-22T09:08:27.480Z,150
2016-10-22T09:09:27.781Z,145
2016-10-22T09:10:27.452Z,145
2016-10-22T09:11:28.061Z,130
2016-10-22T09:12:27.417Z,120
2016-10-22T09:13:28.358Z,120
2016-10-22T09:14:27.390Z,125
2016-10-22T09:15:27.707Z,120
2016-10-22T09:16:27.371Z,95
2016-10-22T09:17:27.360Z,70
2016-10-22T09:18:27.338Z,55
2016-10-22T09:19:27.526Z,55
2016-10-22T09:20:27.614Z,75
2016-10-22T09:21:27.278Z,100
2016-10-22T09:22:27.267Z,95
2016-10-22T09:23:27.273Z,105
2016-10-22T09:24:27.258Z,110
2016-10-22T09:25:27.566Z,125
2016-10-22T09:26:27.259Z,140
2016-10-22T09:27:27.222Z,150
2016-10-22T09:28:27.196Z,145
2016-10-22T09:29:27.177Z,150
2016-10-22T09:30:27.190Z,150
2016-10-22T09:31:27.450Z,140
2016-10-22T09:32:27.150Z,135
2016-10-22T09:33:27.423Z,125
2016-10-22T09:34:27.741Z,120
2016-10-22T09:35:27.133Z,120
2016-10-22T09:36:27.720Z,115
2016-10-22T09:37:27.070Z,110
2016-10-22T09:38:27.074Z,115
2016-10-22T09:39:27.038Z,120
2016-10-22T09:40:27.032Z,120
2016-10-22T09:41:27.024Z,120
2016-10-22T09:42:26.991Z,110
2016-10-22T09:43:27.302Z,115
2016-10-22T09:44:27.278Z,90
2016-10-22T09:45:27.288Z,100
2016-10-22T09:46:27.187Z,115
2016-10-22T09:47:27.244Z,120
2016-10-22T09:48:27.250Z,115
2016-10-22T09:49:27.218Z,115
2016-10-22T09:50:26.898Z,115
2016-10-22T09:51:26.866Z,110
2016-10-22T09:52:26.856Z,105
2016-10-22T09:53:26.853Z,100
2016-10-22T09:54:26.896Z,100
2016-10-22T09:55:27.485Z,100
2016-10-22T09:56:27.114Z,95
2016-10-22T09:57:26.788Z,100
2016-10-22T09:58:27.087Z,90
2016-10-22T09:59:26.768Z,90
2016-10-22T10:00:26.748Z,90
2016-10-22T10:01:26.738Z,90
2016-10-22T10:02:26.717Z,90
2016-10-22T10:03:27.080Z,90
2016-10-22T10:04:26.745Z,90
2016-10-22T10:05:27.360Z,90
2016-10-22T10:06:27.343Z,95
2016-10-22T10:07:26.654Z,95
2016-10-22T10:08:26.634Z,95
2016-10-22T10:09:27.258Z,105
2016-10-22T10:10:26.925Z,105
2016-10-22T10:11:26.643Z,110
2016-10-22T10:12:26.596Z,110
2016-10-22T10:13:26.559Z,115
2016-10-22T10:14:26.544Z,115
2016-10-22T10:15:26.541Z,115
2016-10-22T10:16:26.573Z,120
2016-10-22T10:17:26.521Z,120
2016-10-22T10:18:26.505Z,120
2016-10-22T10:19:26.495Z,120
2016-10-22T10:20:26.481Z,120
2016-10-22T10:21:26.459Z,120
2016-10-22T10:22:26.442Z,130
2016-10-22T10:23:26.432Z,140
2016-10-22T10:24:26.727Z,145
2016-10-22T10:25:26.407Z,140
2016-10-22T10:26:27.280Z,140
2016-10-22T10:27:26.371Z,140
2016-10-22T10:28:26.679Z,140
2016-10-22T10:29:26.357Z,140
2016-10-22T10:30:26.964Z,135
2016-10-22T10:31:26.323Z,135
2016-10-22T10:32:26.634Z,130
2016-10-22T10:33:26.608Z,125
2016-10-22T10:34:26.590Z,125
2016-10-22T10:35:26.265Z,120
2016-10-22T10:36:26.308Z,120
2016-10-22T10:37:26.566Z,120
2016-10-22T10:38:26.228Z,120
2016-10-22T10:39:26.259Z,120
2016-10-22T10:40:26.211Z,110
2016-10-22T10:41:26.183Z,100
2016-10-22T10:42:26.486Z,95
2016-10-22T10:43:26.159Z,100
2016-10-22T10:44:26.141Z,100
2016-10-22T10:45:26.154Z,105
2016-10-22T10:46:26.127Z,105
2016-10-22T10:47:26.113Z,110
2016-10-22T10:48:26.412Z,110
2016-10-22T10:49:26.075Z,110
2016-10-22T10:50:26.087Z,110
2016-10-22T10:51:26.060Z,110
2016-10-22T10:52:26.672Z,115
2016-10-22T10:53:26.018Z,120
2016-10-22T10:54:26.643Z,120
2016-10-22T10:55:26.001Z,120
2016-10-22T10:56:25.993Z,125
2016-10-22T10:57:25.971Z,130
2016-10-22T10:58:25.963Z,135
2016-10-22T10:59:25.953Z,135
2016-10-22T11:00:26.247Z,135
2016-10-22T11:01:26.550Z,140
2016-10-22T11:02:26.213Z,140
2016-10-22T11:03:26.222Z,145
2016-10-22T11:04:25.889Z,150
2016-10-22T11:05:26.173Z,150
2016-10-22T11:06:25.845Z,150
2016-10-22T11:07:25.879Z,155
2016-10-22T11:08:26.151Z,155
2016-10-22T11:09:26.132Z,155
2016-10-22T11:10:25.782Z,165
2016-10-22T11:11:26.086Z,165
2016-10-22T11:12:25.764Z,165
2016-10-22T11:13:25.757Z,160
2016-10-22T11:14:26.064Z,155
2016-10-22T11:15:25.724Z,155
2016-10-22T11:16:25.720Z,150
2016-10-22T11:17:26.009Z,140
2016-10-22T11:18:26.040Z,140
2016-10-22T11:19:25.669Z,130
2016-10-22T11:20:25.658Z,125
2016-10-22T11:21:25.690Z,120
2016-10-22T11:22:25.626Z,115
2016-10-22T11:23:26.273Z,110
2016-10-22T11:24:26.240Z,105
2016-10-22T11:25:25.597Z,100
2016-10-22T11:26:25.913Z,100
2016-10-22T11:27:25.574Z,95
2016-10-22T11:28:25.889Z,95
2016-10-22T11:29:25.551Z,95
2016-10-22T11:30:25.845Z,90
2016-10-22T11:31:25.510Z,90
2016-10-22T11:32:25.814Z,85
2016-10-22T11:33:25.805Z,85
2016-10-22T11:34:25.480Z,85
2016-10-22T11:35:25.765Z,85
2016-10-22T11:36:25.488Z,80
2016-10-22T11:37:25.834Z,80
2016-10-22T11:38:25.415Z,80
2016-10-22T11:39:25.724Z,75
2016-10-22T11:40:25.402Z,75
2016-10-22T11:41:25.379Z,75
2016-10-22T11:42:25.684Z,75
2016-10-22T11:43:25.744Z,75
2016-10-22T11:44:25.376Z,75
2016-10-22T11:45:25.327Z,75
2016-10-22T11:46:25.519Z,75
2016-10-22T11:47:25.929Z,75
2016-10-22T11:48:25.291Z,75
2016-10-22T11:49:25.278Z,75
2016-10-22T11:50:25.937Z,75
2016-10-22T11:51:25.246Z,75
2016-10-22T11:52:25.234Z,75
2016-10-22T11:53:25.214Z,75
2016-10-22T11:54:25.207Z,75
2016-10-22T11:55:25.189Z,80
2016-10-22T11:56:25.488Z,80
2016-10-22T11:57:25.152Z,80
2016-10-22T11:58:25.156Z,80
2016-10-22T11:59:25.214Z,80
2016-10-22T12:00:25.110Z,80
2016-10-22T12:01:25.420Z,80
2016-10-22T12:02:25.090Z,85
2016-10-22T12:03:25.077Z,85
2016-10-22T12:04:25.059Z,85
2016-10-22T12:05:25.683Z,85
2016-10-22T12:06:26.004Z,85
2016-10-22T12:07:25.658Z,85
2016-10-22T12:08:25.323Z,85
2016-10-22T12:09:25.659Z,85
2016-10-22T12:10:25.182Z,85
2016-10-22T12:11:24.966Z,85
2016-10-22T12:12:25.557Z,85
2016-10-22T12:13:25.259Z,90
2016-10-22T12:14:24.935Z,90
2016-10-22T12:15:24.912Z,90
2016-10-22T12:16:25.247Z,90
2016-10-22T12:17:24.885Z,90
2016-10-22T12:18:25.190Z,90
2016-10-22T12:19:24.913Z,90
2016-10-22T12:20:24.913Z,90
2016-10-22T12:21:24.847Z,90
2016-10-22T12:22:24.810Z,90
2016-10-22T12:23:24.795Z,95
2016-10-22T12:24:24.820Z,90
2016-10-22T12:25:24.771Z,95
2016-10-22T12:26:24.754Z,95
2016-10-22T12:27:24.756Z,95
2016-10-22T12:28:25.057Z,95
2016-10-22T12:29:24.734Z,95
2016-10-22T12:30:25.359Z,100
2016-10-22T12:31:24.689Z,100
2016-10-22T12:32:25.043Z,95
2016-10-22T12:33:24.707Z,95
2016-10-22T12:34:24.653Z,95
2016-10-22T12:35:24.643Z,95
2016-10-22T12:36:25.352Z,95
2016-10-22T12:37:24.876Z,95
2016-10-22T12:38:24.916Z,95
2016-10-22T12:39:24.597Z,95
2016-10-22T12:40:25.512Z,95
2016-10-22T12:41:24.914Z,95
2016-10-22T12:42:24.603Z,90
2016-10-22T12:43:24.841Z,85
2016-10-22T12:44:24.512Z,85
2016-10-22T12:45:25.186Z,90
2016-10-22T12:46:24.532Z,90
2016-10-22T12:47:24.481Z,95
2016-10-22T12:48:24.769Z,100
2016-10-22T12:49:24.759Z,100
2016-10-22T12:50:24.429Z,100
2016-10-22T12:51:24.417Z,100
2016-10-22T12:52:24.406Z,105
2016-10-22T12:53:24.397Z,105
2016-10-22T12:54:24.779Z,105
2016-10-22T12:55:24.690Z,110
2016-10-22T12:56:24.352Z,110
2016-10-22T12:57:24.648Z,115
2016-10-22T12:58:24.662Z,115
2016-10-22T12:59:24.617Z,115
2016-10-22T13:00:24.650Z,120
2016-10-22T13:01:24.272Z,120
2016-10-22T13:02:24.271Z,120
2016-10-22T13:03:24.263Z,120
2016-10-22T13:04:24.243Z,120
2016-10-22T13:05:24.240Z,115
2016-10-22T13:06:24.202Z,115
2016-10-22T13:07:24.237Z,120
2016-10-22T13:08:24.181Z,115
2016-10-22T13:09:24.801Z,115
2016-10-22T13:10:24.151Z,125
2016-10-22T13:11:24.466Z,120
2016-10-22T13:12:24.129Z,125
2016-10-22T13:13:24.454Z,125
2016-10-22T13:14:24.424Z,125
2016-10-22T13:15:24.732Z,130
2016-10-22T13:16:24.082Z,120
2016-10-22T13:17:24.373Z,120
2016-10-22T13:18:24.049Z,120
2016-10-22T13:19:24.034Z,125
2016-10-22T13:20:24.336Z,130
2016-10-22T13:21:24.014Z,130
2016-10-22T13:22:24.310Z,135
2016-10-22T13:23:23.988Z,135
2016-10-22T13:24:23.984Z,135
2016-10-22T13:25:23.967Z,135
2016-10-22T13:26:23.951Z,135
2016-10-22T13:27:23.928Z,140
2016-10-22T13:28:24.241Z,145
2016-10-22T13:29:23.912Z,150
2016-10-22T13:30:23.888Z,150
2016-10-22T13:31:24.505Z,155
2016-10-22T13:32:23.891Z,155
2016-10-22T13:33:23.858Z,165
2016-10-22T13:34:23.878Z,170
2016-10-22T13:35:23.830Z,175
2016-10-22T13:36:23.821Z,175
2016-10-22T13:37:24.106Z,175
2016-10-22T13:38:24.092Z,175
2016-10-22T13:39:23.774Z,165
2016-10-22T13:40:23.765Z,165
2016-10-22T13:41:24.396Z,160
2016-10-22T13:42:23.745Z,155
2016-10-22T13:43:23.718Z,150
2016-10-22T13:44:23.704Z,145
2016-10-22T13:45:23.688Z,140
2016-10-22T13:46:23.883Z,140
2016-10-22T13:47:24.307Z,140
2016-10-22T13:48:23.661Z,135
2016-10-22T13:49:23.656Z,135
2016-10-22T13:50:23.944Z,135
2016-10-22T13:51:23.670Z,135
2016-10-22T13:52:23.918Z,135
2016-10-22T13:53:23.592Z,130
2016-10-22T13:54:23.576Z,130
2016-10-22T13:55:24.240Z,130
2016-10-22T13:56:23.569Z,135
2016-10-22T13:57:23.546Z,140
2016-10-22T13:58:23.915Z,150
2016-10-22T13:59:23.508Z,155
2016-10-22T14:00:23.856Z,165
2016-10-22T14:01:23.849Z,135
2016-10-22T14:02:23.481Z,195
2016-10-22T14:03:23.471Z,225
2016-10-22T14:04:23.763Z,265
2016-10-22T14:05:23.444Z,235
2016-10-22T14:06:23.733Z,200
2016-10-22T14:07:23.407Z,205
2016-10-22T14:08:23.711Z,205
2016-10-22T14:09:23.384Z,205
2016-10-22T14:10:23.611Z,205
2016-10-22T14:11:23.704Z,200
2016-10-22T14:12:23.669Z,215
2016-10-22T14:13:23.661Z,200
2016-10-22T14:14:23.338Z,185
2016-10-22T14:15:23.328Z,180
2016-10-22T14:16:23.337Z,170
2016-10-22T14:17:23.297Z,155
2016-10-22T14:18:23.278Z,145
2016-10-22T14:19:23.586Z,140
2016-10-22T14:20:23.252Z,135
2016-10-22T14:21:23.282Z,130
2016-10-22T14:22:23.561Z,120